Time;durP1;ratioP1;P1;durP2;ratioP2;P2;SDS_P1;SDS_P2;PMS_P1;PMS_P2;Temp;Humidity;BMP_temperature;BMP_pressure;BME280_temperature;BME280_humidity;BME280_pressure;Samples;Min_cycle;Max_cycle;Signal;HPM_P1;HPM_P2
2021/08/12 00:01:26;;;;;;;12.18;5.82;;;;;;;15.25;100.00;101757.06;6273135;28;20049;-79
2021/08/12 00:04:29;;;;;;;10.30;5.80;;;;;;;15.23;100.00;101759.78;6272698;28;20052;-79
2021/08/12 00:07:30;;;;;;;9.18;6.15;;;;;;;15.21;100.00;101755.50;6272648;28;20614;-78
2021/08/12 00:10:31;;;;;;;8.07;5.78;;;;;;;15.21;100.00;101760.81;6272847;28;20044;-79
2021/08/12 00:13:34;;;;;;;8.52;5.85;;;;;;;15.16;100.00;101765.50;6278685;22;20049;-77
2021/08/12 00:16:35;;;;;;;13.52;6.28;;;;;;;15.12;100.00;101764.81;6254253;28;20049;-77
2021/08/12 00:19:37;;;;;;;11.65;5.97;;;;;;;15.09;100.00;101767.66;6252748;28;20049;-77
2021/08/12 00:22:38;;;;;;;8.63;6.10;;;;;;;15.08;100.00;101765.09;6265107;28;20041;-79
2021/08/12 00:25:40;;;;;;;10.90;6.25;;;;;;;15.08;100.00;101762.44;6267803;28;20049;-79
2021/08/12 00:28:42;;;;;;;9.07;6.60;;;;;;;15.06;100.00;101767.81;6277243;28;20045;-79
2021/08/12 00:31:45;;;;;;;10.13;5.72;;;;;;;15.04;100.00;101755.63;6277034;28;20053;-79
2021/08/12 00:34:46;;;;;;;8.70;6.00;;;;;;;15.05;100.00;101762.63;6276905;28;20091;-79
2021/08/12 00:37:47;;;;;;;7.53;5.95;;;;;;;15.04;100.00;101758.28;6277246;28;20138;-78
2021/08/12 00:40:48;;;;;;;12.20;6.22;;;;;;;15.01;100.00;101756.66;6272720;28;20049;-79
2021/08/12 00:43:51;;;;;;;8.63;5.80;;;;;;;15.04;100.00;101755.63;6264224;28;20052;-79
2021/08/12 00:46:53;;;;;;;10.23;6.65;;;;;;;15.03;100.00;101759.19;6267773;28;20052;-78
2021/08/12 00:49:54;;;;;;;10.07;6.38;;;;;;;15.00;100.00;101767.34;6277030;28;20412;-79
2021/08/12 00:52:57;;;;;;;8.50;5.93;;;;;;;14.96;100.00;101762.19;6276509;28;20051;-79
2021/08/12 00:55:58;;;;;;;10.15;5.95;;;;;;;14.93;100.00;101764.16;6275771;28;20044;-79
2021/08/12 00:59:01;;;;;;;13.73;6.00;;;;;;;14.92;100.00;101767.75;6276513;28;20055;-79
2021/08/12 01:02:04;;;;;;;9.27;6.07;;;;;;;14.92;100.00;101765.09;6276526;28;20048;-79
2021/08/12 01:05:09;;;;;;;13.30;6.03;;;;;;;14.91;100.00;101763.41;6275848;28;20053;-79
2021/08/12 01:08:14;;;;;;;10.65;6.18;;;;;;;14.89;100.00;101758.16;6276655;28;20060;-79
2021/08/12 01:11:23;;;;;;;8.00;6.45;;;;;;;14.86;100.00;101753.06;6276332;28;20415;-79
2021/08/12 01:14:36;;;;;;;8.55;6.55;;;;;;;14.84;100.00;101743.50;6275537;28;20056;-79
2021/08/12 01:17:44;;;;;;;9.52;6.35;;;;;;;14.82;100.00;101748.88;6276062;28;20049;-79
2021/08/12 01:21:12;;;;;;;9.13;6.47;;;;;;;14.80;100.00;101750.72;6276295;28;20060;-79
2021/08/12 01:24:16;;;;;;;10.18;6.57;;;;;;;14.75;100.00;101738.69;6259777;28;20053;-80
2021/08/12 01:27:18;;;;;;;20.05;7.03;;;;;;;14.71;100.00;101745.94;6275640;28;20053;-79
2021/08/12 01:30:25;;;;;;;9.10;6.90;;;;;;;14.72;100.00;101745.03;6275926;28;20052;-79
2021/08/12 01:33:34;;;;;;;12.48;6.55;;;;;;;14.75;100.00;101741.34;6274494;28;20122;-79
2021/08/12 01:36:40;;;;;;;10.73;6.50;;;;;;;14.70;100.00;101755.69;6275463;28;20045;-79
2021/08/12 01:39:43;;;;;;;9.02;6.50;;;;;;;14.68;100.00;101756.72;6275479;28;20049;-79
2021/08/12 01:42:46;;;;;;;8.77;6.72;;;;;;;14.64;100.00;101745.44;6275043;28;20057;-79
2021/08/12 01:45:50;;;;;;;13.75;7.00;;;;;;;14.63;100.00;101754.31;6275049;28;20056;-79
2021/08/12 01:48:54;;;;;;;11.57;7.03;;;;;;;14.61;100.00;101750.88;6275056;28;20419;-80
2021/08/12 01:51:56;;;;;;;11.77;7.15;;;;;;;14.57;100.00;101746.69;6275043;28;20049;-79
2021/08/12 01:54:59;;;;;;;11.13;7.05;;;;;;;14.57;100.00;101748.50;6275260;28;20056;-79
2021/08/12 01:58:01;;;;;;;14.10;7.00;;;;;;;14.57;100.00;101752.00;6275057;28;20049;-79
2021/08/12 02:01:03;;;;;;;10.52;7.00;;;;;;;14.56;100.00;101742.34;6274911;28;20492;-80
2021/08/12 02:04:05;;;;;;;10.63;7.47;;;;;;;14.59;100.00;101750.13;6274640;28;20404;-79
2021/08/12 02:07:11;;;;;;;9.30;6.70;;;;;;;14.58;100.00;101739.59;6275008;28;20059;-79
2021/08/12 02:10:13;;;;;;;9.13;6.22;;;;;;;14.54;100.00;101736.31;6275018;28;20128;-79
2021/08/12 02:13:15;;;;;;;13.55;7.40;;;;;;;14.51;100.00;101735.59;6274308;28;20393;-79
2021/08/12 02:16:16;;;;;;;10.82;7.28;;;;;;;14.48;100.00;101731.31;6274791;28;20447;-79
2021/08/12 02:19:17;;;;;;;10.85;7.07;;;;;;;14.50;100.00;101732.13;6274669;28;20056;-79
2021/08/12 02:22:22;;;;;;;10.88;7.47;;;;;;;14.49;100.00;101732.16;6274675;28;20044;-79
2021/08/12 02:25:28;;;;;;;9.80;7.38;;;;;;;14.52;100.00;101729.38;6273859;28;20048;-79
2021/08/12 02:28:31;;;;;;;9.98;7.43;;;;;;;14.55;100.00;101730.06;6274315;28;20045;-79
2021/08/12 02:31:32;;;;;;;13.02;8.40;;;;;;;14.57;100.00;101736.13;6274400;28;20052;-79
2021/08/12 02:34:35;;;;;;;15.23;9.13;;;;;;;14.57;100.00;101725.53;6274190;28;20040;-79
2021/08/12 02:37:39;;;;;;;12.43;7.75;;;;;;;14.58;100.00;101726.38;6273692;28;20606;-80
2021/08/12 02:40:42;;;;;;;13.55;8.00;;;;;;;14.55;100.00;101727.41;6274492;28;20056;-79
2021/08/12 02:43:45;;;;;;;13.90;7.40;;;;;;;14.53;100.00;101725.78;6273592;28;20048;-79
2021/08/12 02:46:49;;;;;;;16.75;9.02;;;;;;;14.50;100.00;101725.97;6273629;28;20052;-79
2021/08/12 02:49:54;;;;;;;16.38;8.23;;;;;;;14.47;100.00;101725.16;6273837;28;20049;-79
2021/08/12 02:52:57;;;;;;;10.63;8.27;;;;;;;14.51;100.00;101720.59;6273678;28;20060;-79
2021/08/12 02:56:00;;;;;;;14.18;7.85;;;;;;;14.52;100.00;101721.44;6273186;28;20056;-80
2021/08/12 02:59:03;;;;;;;12.43;7.55;;;;;;;14.53;100.00;101726.63;6273817;28;20059;-80
2021/08/12 03:02:06;;;;;;;10.68;8.35;;;;;;;14.52;100.00;101730.22;6273543;28;20071;-79
2021/08/12 03:05:09;;;;;;;10.38;7.43;;;;;;;14.50;100.00;101729.47;6273311;28;20053;-80
2021/08/12 03:08:16;;;;;;;14.75;8.02;;;;;;;14.50;100.00;101726.81;6273763;28;20045;-80
2021/08/12 03:11:19;;;;;;;11.73;8.25;;;;;;;14.50;100.00;101723.31;6273519;28;20057;-79
2021/08/12 03:14:21;;;;;;;15.18;8.20;;;;;;;14.49;100.00;101721.59;6273026;28;20498;-79
2021/08/12 03:17:24;;;;;;;13.35;8.13;;;;;;;14.46;100.00;101725.25;6273585;28;20056;-79
2021/08/12 03:20:28;;;;;;;14.23;7.93;;;;;;;14.43;100.00;101723.59;6273245;28;20055;-80
2021/08/12 03:23:30;;;;;;;13.88;8.15;;;;;;;14.39;100.00;101722.06;6272755;28;20053;-79
2021/08/12 03:26:32;;;;;;;14.27;8.90;;;;;;;14.38;100.00;101719.50;6273384;28;20056;-79
2021/08/12 03:29:33;;;;;;;11.27;8.23;;;;;;;14.33;100.00;101727.69;6272944;28;20060;-79
2021/08/12 03:32:35;;;;;;;15.23;7.65;;;;;;;14.30;100.00;101727.84;6272878;28;20059;-79
2021/08/12 03:35:36;;;;;;;12.07;8.27;;;;;;;14.30;100.00;101730.47;6272433;28;20055;-80
2021/08/12 03:38:39;;;;;;;14.95;8.57;;;;;;;14.27;100.00;101722.72;6272666;28;20411;-80
2021/08/12 03:41:40;;;;;;;12.98;7.90;;;;;;;14.28;100.00;101721.78;6272095;28;20045;-80
2021/08/12 03:44:41;;;;;;;9.55;7.63;;;;;;;14.30;100.00;101722.56;6272558;28;20049;-79
2021/08/12 03:47:43;;;;;;;11.02;7.63;;;;;;;14.33;100.00;101706.53;6272383;28;20459;-80
2021/08/12 03:50:44;;;;;;;16.63;8.32;;;;;;;14.29;100.00;101718.19;6272772;28;20052;-80
2021/08/12 03:53:47;;;;;;;9.95;7.20;;;;;;;14.29;100.00;101712.91;6272150;28;20052;-79
2021/08/12 03:56:48;;;;;;;14.38;8.13;;;;;;;14.30;100.00;101719.06;6271519;28;20053;-80
2021/08/12 03:59:49;;;;;;;15.30;9.07;;;;;;;14.28;100.00;101715.66;6272208;28;20049;-79
2021/08/12 04:02:51;;;;;;;17.25;8.98;;;;;;;14.24;100.00;101719.41;6272138;28;20496;-80
2021/08/12 04:05:52;;;;;;;12.80;8.45;;;;;;;14.21;100.00;101718.59;6272258;28;20059;-81
2021/08/12 04:08:55;;;;;;;14.07;8.50;;;;;;;14.22;100.00;101722.13;6271933;28;20060;-79
2021/08/12 04:11:56;;;;;;;16.85;9.10;;;;;;;14.19;100.00;101720.50;6272145;28;20072;-80
2021/08/12 04:14:58;;;;;;;18.27;9.50;;;;;;;14.17;100.00;101727.66;6271954;28;20056;-80
2021/08/12 04:17:59;;;;;;;13.43;8.98;;;;;;;14.15;100.00;101712.81;6272217;28;20045;-80
2021/08/12 04:21:00;;;;;;;12.93;8.93;;;;;;;14.12;100.00;101721.72;6272086;28;20056;-80
2021/08/12 04:24:03;;;;;;;17.90;11.35;;;;;;;14.08;100.00;101721.97;6271830;28;20508;-80
2021/08/12 04:27:05;;;;;;;14.50;9.00;;;;;;;14.08;100.00;101725.50;6271995;28;20045;-80
2021/08/12 04:30:08;;;;;;;13.25;8.98;;;;;;;14.09;100.00;101721.91;6271600;28;20063;-80
2021/08/12 04:33:09;;;;;;;14.18;9.00;;;;;;;14.12;100.00;101728.81;6272096;28;20045;-80
2021/08/12 04:36:11;;;;;;;16.75;9.60;;;;;;;14.12;100.00;101727.03;6241552;28;20057;-80
2021/08/12 04:39:13;;;;;;;17.00;10.02;;;;;;;14.12;100.00;101713.81;6246396;28;20053;-80
2021/08/12 04:42:15;;;;;;;18.15;11.80;;;;;;;14.14;100.00;101719.88;6246750;28;20057;-80
2021/08/12 04:45:17;;;;;;;16.40;10.10;;;;;;;14.15;100.00;101723.38;6238891;28;20421;-80
2021/08/12 04:48:18;;;;;;;13.57;9.23;;;;;;;14.16;100.00;101718.00;6222677;28;20052;-79
2021/08/12 04:51:20;;;;;;;14.43;9.48;;;;;;;14.21;100.00;101707.19;6227373;28;20058;-80
2021/08/12 04:54:22;;;;;;;12.68;8.60;;;;;;;14.17;100.00;101714.44;6231894;28;20486;-79
2021/08/12 04:57:24;;;;;;;14.93;9.52;;;;;;;14.19;100.00;101719.63;6234487;28;20045;-80
2021/08/12 05:00:25;;;;;;;11.82;8.25;;;;;;;14.25;100.00;101715.81;6232498;28;20056;-79
2021/08/12 05:03:26;;;;;;;11.93;8.93;;;;;;;14.28;100.00;101727.09;6233396;28;20045;-80
2021/08/12 05:06:28;;;;;;;11.88;9.48;;;;;;;14.34;100.00;101731.19;6232439;28;20046;-80
2021/08/12 05:09:31;;;;;;;11.95;9.27;;;;;;;14.40;100.00;101726.44;6236124;28;20128;-78
2021/08/12 05:12:32;;;;;;;17.70;9.23;;;;;;;14.50;100.00;101731.25;6237723;28;20057;-79
2021/08/12 05:15:33;;;;;;;17.25;9.63;;;;;;;14.59;100.00;101733.41;6237052;28;20049;-80
2021/08/12 05:18:35;;;;;;;11.73;8.38;;;;;;;14.68;100.00;101732.91;6238125;28;20046;-80
2021/08/12 05:21:37;;;;;;;13.38;9.60;;;;;;;14.79;100.00;101735.81;6236263;28;20050;-80
2021/08/12 05:24:39;;;;;;;14.23;9.15;;;;;;;14.89;100.00;101722.91;6237880;28;20042;-79
2021/08/12 05:27:41;;;;;;;14.05;10.15;;;;;;;14.94;100.00;101727.03;6231204;28;20528;-80
2021/08/12 05:30:42;;;;;;;14.75;8.90;;;;;;;15.00;100.00;101728.47;6226668;28;20056;-79
2021/08/12 05:33:43;;;;;;;12.30;8.90;;;;;;;15.06;100.00;101724.63;6225608;28;20409;-81
2021/08/12 05:36:45;;;;;;;13.38;8.85;;;;;;;15.09;100.00;101727.97;6226618;28;20057;-80
2021/08/12 05:39:47;;;;;;;11.27;8.15;;;;;;;15.12;100.00;101718.97;6225970;28;20053;-79
2021/08/12 05:42:49;;;;;;;15.80;8.55;;;;;;;15.14;100.00;101723.25;6225769;28;20046;-79
2021/08/12 05:45:50;;;;;;;14.70;8.38;;;;;;;15.14;100.00;101725.91;6225200;28;20050;-81
2021/08/12 05:48:51;;;;;;;14.95;8.60;;;;;;;15.18;100.00;101722.13;6226382;28;20053;-80
2021/08/12 05:51:53;;;;;;;10.32;7.85;;;;;;;15.21;100.00;101716.69;6225496;28;20073;-79
2021/08/12 05:54:56;;;;;;;10.98;7.63;;;;;;;15.25;100.00;101716.47;6225106;28;20046;-80
2021/08/12 05:57:57;;;;;;;9.95;7.78;;;;;;;15.28;100.00;101714.50;6226073;28;20054;-81
2021/08/12 06:00:58;;;;;;;10.60;7.85;;;;;;;15.25;100.00;101717.31;6225453;28;20053;-80
2021/08/12 06:04:00;;;;;;;9.55;7.55;;;;;;;15.27;100.00;101712.81;6225291;28;20050;-80
2021/08/12 06:07:01;;;;;;;14.85;7.00;;;;;;;15.29;100.00;101713.56;6225520;28;20136;-79
2021/08/12 06:10:05;;;;;;;11.77;7.28;;;;;;;15.33;100.00;101722.19;6225627;28;20519;-81
2021/08/12 06:13:06;;;;;;;9.30;6.07;;;;;;;15.37;100.00;101721.94;6223959;28;20413;-80
2021/08/12 06:16:08;;;;;;;8.65;6.15;;;;;;;15.44;100.00;101717.09;6230816;22;1029795;-79
2021/08/12 06:19:09;;;;;;;9.82;6.20;;;;;;;15.53;100.00;101718.38;6253676;28;20050;-81
2021/08/12 06:22:11;;;;;;;9.05;5.75;;;;;;;15.59;100.00;101716.22;6264921;28;20049;-79
2021/08/12 06:25:14;;;;;;;12.98;7.38;;;;;;;15.65;100.00;101713.25;6252627;28;20052;-80
2021/08/12 06:28:15;;;;;;;12.20;7.05;;;;;;;15.72;100.00;101719.06;6250519;28;20556;-80
2021/08/12 06:31:17;;;;;;;10.93;6.82;;;;;;;15.88;100.00;101724.28;6251250;28;20053;-79
2021/08/12 06:34:19;;;;;;;11.07;6.38;;;;;;;15.95;100.00;101720.31;6251288;28;20053;-79
2021/08/12 06:37:20;;;;;;;7.97;5.55;;;;;;;16.03;100.00;101719.84;6250717;28;20056;-80
2021/08/12 06:40:24;;;;;;;8.68;5.55;;;;;;;16.10;100.00;101727.34;6252050;28;20053;-80
2021/08/12 06:43:25;;;;;;;7.03;5.05;;;;;;;16.14;100.00;101728.88;6250704;28;20456;-81
2021/08/12 06:46:26;;;;;;;8.00;4.93;;;;;;;16.20;100.00;101735.59;6251747;28;20045;-81
2021/08/12 06:49:28;;;;;;;10.77;5.50;;;;;;;16.21;100.00;101740.81;6251401;28;20057;-81
2021/08/12 06:52:29;;;;;;;12.20;5.38;;;;;;;16.25;100.00;101736.16;6252024;28;20085;-81
2021/08/12 06:55:32;;;;;;;7.35;5.20;;;;;;;16.26;100.00;101737.88;6250441;28;20049;-80
2021/08/12 06:58:33;;;;;;;8.82;5.38;;;;;;;16.30;100.00;101738.53;6272491;28;20056;-81
2021/08/12 07:01:35;;;;;;;10.10;5.20;;;;;;;16.35;100.00;101744.38;6276162;28;20045;-82
2021/08/12 07:04:36;;;;;;;10.48;5.95;;;;;;;16.38;100.00;101738.91;6276405;28;20049;-82
2021/08/12 07:07:37;;;;;;;8.75;5.80;;;;;;;16.46;100.00;101742.78;6275870;28;20068;-80
2021/08/12 07:10:40;;;;;;;11.50;5.63;;;;;;;16.57;100.00;101733.31;6275673;28;20045;-80
2021/08/12 07:13:43;;;;;;;9.40;5.45;;;;;;;16.65;100.00;101737.19;6275854;28;20064;-81
2021/08/12 07:16:44;;;;;;;10.35;5.78;;;;;;;16.79;100.00;101735.50;6275820;28;20053;-81
2021/08/12 07:19:46;;;;;;;7.80;4.78;;;;;;;16.92;100.00;101728.44;6276245;28;20053;-81
2021/08/12 07:22:47;;;;;;;6.53;4.55;;;;;;;17.04;100.00;101719.69;6276951;28;20319;-80
2021/08/12 07:25:50;;;;;;;6.18;4.53;;;;;;;17.14;100.00;101719.94;6277517;28;20064;-82
2021/08/12 07:28:51;;;;;;;8.93;5.63;;;;;;;17.21;100.00;101716.81;6279344;28;20049;-80
2021/08/12 07:31:53;;;;;;;6.38;3.85;;;;;;;17.31;100.00;101725.00;6273670;28;20052;-80
2021/08/12 07:34:54;;;;;;;6.43;4.40;;;;;;;17.40;100.00;101721.75;6273418;28;20054;-81
2021/08/12 07:37:55;;;;;;;6.40;4.25;;;;;;;17.44;100.00;101719.72;6273858;28;20056;-79
2021/08/12 07:40:58;;;;;;;10.38;4.00;;;;;;;17.57;100.00;101715.28;6273796;28;20060;-80
2021/08/12 07:44:01;;;;;;;6.05;3.85;;;;;;;17.69;100.00;101711.81;6273346;28;20045;-80
2021/08/12 07:47:02;;;;;;;6.20;4.25;;;;;;;17.75;100.00;101715.88;6274115;28;20056;-80
2021/08/12 07:50:09;;;;;;;5.13;3.72;;;;;;;17.81;100.00;101707.50;6273455;28;20063;-80
2021/08/12 07:53:11;;;;;;;4.68;3.47;;;;;;;17.84;100.00;101717.06;6273990;28;20049;-80
2021/08/12 07:56:14;;;;;;;5.10;3.42;;;;;;;17.87;100.00;101714.19;6273551;28;20045;-79
2021/08/12 07:59:15;;;;;;;4.32;3.08;;;;;;;17.87;100.00;101727.50;6274316;28;20554;-81
2021/08/12 08:02:17;;;;;;;4.53;3.13;;;;;;;17.85;100.00;101727.63;6274113;28;20624;-80
2021/08/12 08:05:20;;;;;;;9.07;3.58;;;;;;;17.87;100.00;101727.50;6254516;28;20504;-80
2021/08/12 08:08:22;;;;;;;9.57;3.90;;;;;;;17.90;100.00;101720.16;6253470;28;20060;-81
2021/08/12 08:11:24;;;;;;;6.35;3.92;;;;;;;18.02;100.00;101725.59;6268127;28;20136;-81
2021/08/12 08:14:26;;;;;;;7.18;3.75;;;;;;;18.16;100.00;101718.34;6253500;28;20046;-79
2021/08/12 08:17:27;;;;;;;5.55;3.67;;;;;;;18.21;100.00;101720.69;6243044;28;20061;-80
2021/08/12 08:20:29;;;;;;;5.22;3.25;;;;;;;18.27;100.00;101722.09;6267344;28;20052;-80
2021/08/12 08:23:30;;;;;;;5.85;3.63;;;;;;;18.36;100.00;101716.13;6257261;28;20081;-79
2021/08/12 08:26:33;;;;;;;5.13;3.63;;;;;;;18.45;100.00;101718.97;6248623;28;20049;-80
2021/08/12 08:29:34;;;;;;;5.78;3.25;;;;;;;18.55;99.37;101716.50;6249051;28;20068;-80
2021/08/12 08:32:38;;;;;;;6.95;2.83;;;;;;;18.73;95.10;101719.69;6243794;28;20046;-78
2021/08/12 08:35:39;;;;;;;4.70;2.88;;;;;;;18.88;95.36;101713.25;6251615;28;20044;-79
2021/08/12 08:38:41;;;;;;;5.40;3.40;;;;;;;18.90;94.98;101706.00;6249510;28;20424;-79
2021/08/12 08:41:44;;;;;;;5.85;2.75;;;;;;;18.98;95.49;101710.75;6246622;28;20069;-79
2021/08/12 08:44:50;;;;;;;5.55;3.22;;;;;;;19.11;94.85;101713.38;6249685;28;20056;-77
2021/08/12 08:47:52;;;;;;;5.88;3.50;;;;;;;19.14;96.04;101703.34;6251256;28;20057;-79
2021/08/12 08:50:54;;;;;;;5.38;3.13;;;;;;;19.16;95.58;101711.22;6251419;28;20088;-78
2021/08/12 08:53:56;;;;;;;4.30;2.97;;;;;;;19.27;93.65;101705.94;6250542;28;20052;-73
2021/08/12 08:57:00;;;;;;;5.05;3.30;;;;;;;19.41;94.04;101707.56;6251263;28;20068;-79
2021/08/12 09:00:01;;;;;;;6.25;3.25;;;;;;;19.50;92.71;101701.56;6251095;28;20057;-78
2021/08/12 09:03:03;;;;;;;4.03;3.05;;;;;;;19.53;92.99;101693.31;6250831;28;20053;-79
2021/08/12 09:06:06;;;;;;;4.68;3.35;;;;;;;19.56;91.86;101700.22;6250831;28;20057;-77
2021/08/12 09:09:10;;;;;;;4.65;3.28;;;;;;;19.69;92.50;101699.19;6250566;28;20045;-78
2021/08/12 09:12:13;;;;;;;4.60;2.95;;;;;;;19.73;91.64;101699.81;6251027;28;20050;-80
2021/08/12 09:15:20;;;;;;;4.20;3.25;;;;;;;19.77;92.76;101702.13;6249984;28;20076;-79
2021/08/12 09:18:23;;;;;;;4.38;3.47;;;;;;;19.80;93.35;101701.03;6250669;28;20077;-78
2021/08/12 09:21:25;;;;;;;4.55;3.05;;;;;;;19.81;93.70;101696.56;6249754;28;20049;-79
2021/08/12 09:24:27;;;;;;;4.93;3.63;;;;;;;19.97;91.89;101689.06;6248832;28;20436;-78
2021/08/12 09:27:30;;;;;;;5.82;3.38;;;;;;;20.11;90.47;101691.50;6250638;28;20041;-78
2021/08/12 09:30:31;;;;;;;5.15;3.53;;;;;;;20.14;91.33;101685.09;6253481;28;20045;-78
2021/08/12 09:33:35;;;;;;;5.30;2.97;;;;;;;20.28;88.95;101692.84;6258388;28;20049;-79
2021/08/12 09:36:38;;;;;;;7.35;3.97;;;;;;;20.26;90.64;101682.31;6250587;28;20046;-78
2021/08/12 09:39:41;;;;;;;3.90;2.58;;;;;;;20.20;89.88;101684.59;6249678;28;20123;-79
2021/08/12 09:42:58;;;;;;;5.85;3.45;;;;;;;20.43;88.71;101680.09;6248670;28;20056;-78
2021/08/12 09:45:59;;;;;;;4.55;3.00;;;;;;;20.51;88.53;101685.69;6247468;28;20104;-79
2021/08/12 09:49:01;;;;;;;5.90;3.67;;;;;;;20.55;87.93;101684.50;6248520;28;20045;-79
2021/08/12 09:52:16;;;;;;;4.50;2.83;;;;;;;20.77;85.51;101676.44;6248505;28;20049;-79
2021/08/12 09:55:20;;;;;;;5.97;3.38;;;;;;;20.67;87.42;101675.50;6246016;28;20077;-79
2021/08/12 09:58:23;;;;;;;5.55;3.28;;;;;;;20.57;89.27;101676.34;6248519;28;20394;-80
2021/08/12 10:01:25;;;;;;;4.43;3.22;;;;;;;20.54;90.56;101674.78;6250315;28;20060;-80
2021/08/12 10:04:28;;;;;;;5.05;3.40;;;;;;;20.73;89.50;101671.47;6249702;28;20060;-80
2021/08/12 10:07:37;;;;;;;5.88;3.55;;;;;;;20.90;85.31;101673.59;6250269;28;20053;-79
2021/08/12 10:10:40;;;;;;;4.85;2.95;;;;;;;20.97;84.58;101665.91;6248110;28;20491;-79
2021/08/12 10:13:42;;;;;;;4.45;3.25;;;;;;;21.10;84.97;101671.94;6249160;28;20060;-79
2021/08/12 10:16:44;;;;;;;4.18;2.95;;;;;;;21.23;83.71;101666.44;6246987;28;20501;-79
2021/08/12 10:19:46;;;;;;;4.45;3.10;;;;;;;21.36;83.09;101669.81;6248416;28;20053;-78
2021/08/12 10:22:49;;;;;;;6.32;3.83;;;;;;;21.53;82.20;101671.06;6248888;28;20053;-79
2021/08/12 10:25:58;;;;;;;4.70;3.10;;;;;;;21.57;84.69;101661.78;6247428;28;20393;-80
2021/08/12 10:29:04;;;;;;;3.50;2.95;;;;;;;21.62;82.09;101664.06;6247786;28;20075;-80
2021/08/12 10:32:07;;;;;;;8.10;3.67;;;;;;;21.69;81.75;101670.59;6249750;28;20069;-79
2021/08/12 10:35:12;;;;;;;6.03;3.30;;;;;;;21.88;81.89;101672.53;6248278;28;20068;-81
2021/08/12 10:38:14;;;;;;;4.18;3.10;;;;;;;22.23;78.78;101675.69;6249259;28;20061;-79
2021/08/12 10:41:16;;;;;;;4.32;2.90;;;;;;;22.31;77.90;101679.53;6249386;28;20057;-79
2021/08/12 10:44:21;;;;;;;5.53;3.38;;;;;;;22.17;79.82;101675.41;6247555;28;20056;-80
2021/08/12 10:47:38;;;;;;;6.97;3.85;;;;;;;22.34;77.04;101672.06;6249886;28;20050;-79
2021/08/12 10:50:40;;;;;;;2.92;2.55;;;;;;;22.19;80.28;101670.75;6249028;28;20144;-79
2021/08/12 10:53:43;;;;;;;4.93;3.50;;;;;;;22.03;77.59;101672.06;6248473;28;20053;-79
2021/08/12 10:56:45;;;;;;;5.47;3.38;;;;;;;21.97;78.54;101664.53;6248408;28;20497;-79
2021/08/12 10:59:49;;;;;;;4.55;3.00;;;;;;;22.10;80.74;101663.47;6249249;28;20500;-78
2021/08/12 11:03:05;;;;;;;5.95;3.33;;;;;;;22.36;78.22;101664.75;6248720;28;20495;-79
2021/08/12 11:06:08;;;;;;;5.15;2.42;;;;;;;22.64;77.72;101656.94;6247473;28;20050;-79
2021/08/12 11:09:10;;;;;;;3.90;2.58;;;;;;;22.86;70.26;101659.34;6248399;28;20056;-78
2021/08/12 11:12:11;;;;;;;5.57;3.13;;;;;;;23.14;68.83;101654.19;6249109;28;20519;-80
2021/08/12 11:15:14;;;;;;;3.50;2.22;;;;;;;23.24;68.67;101652.34;6248123;28;20056;-79
2021/08/12 11:18:17;;;;;;;5.30;2.42;;;;;;;23.41;70.86;101661.50;6248973;28;20053;-79
2021/08/12 11:21:38;;;;;;;4.93;2.53;;;;;;;23.65;65.87;101661.06;6248757;28;20079;-80
2021/08/12 11:24:51;;;;;;;3.53;2.40;;;;;;;23.76;65.30;101664.44;6248385;28;20492;-80
2021/08/12 11:27:52;;;;;;;3.47;2.00;;;;;;;23.76;65.08;101655.53;6247776;28;20171;-80
2021/08/12 11:30:55;;;;;;;3.15;1.98;;;;;;;23.75;64.92;101651.16;6243796;28;20064;-79
2021/08/12 11:34:00;;;;;;;4.32;2.28;;;;;;;23.99;64.04;101656.03;6246986;28;20060;-79
2021/08/12 11:37:12;;;;;;;4.75;2.35;;;;;;;24.22;62.42;101648.44;6248466;28;20053;-80
2021/08/12 11:40:13;;;;;;;3.15;2.10;;;;;;;24.47;61.88;101652.28;6247817;28;20053;-79
2021/08/12 11:43:16;;;;;;;3.38;2.13;;;;;;;24.90;57.77;101643.53;6247709;28;20060;-79
2021/08/12 11:46:20;;;;;;;2.92;2.03;;;;;;;24.96;58.05;101631.28;6247535;28;20041;-79
2021/08/12 11:49:22;;;;;;;4.55;2.60;;;;;;;25.27;58.10;101642.53;6249544;28;20049;-80
2021/08/12 11:52:28;;;;;;;4.18;2.28;;;;;;;25.28;57.67;101634.28;6249852;28;20056;-79
2021/08/12 11:55:29;;;;;;;4.82;2.60;;;;;;;25.48;60.66;101639.47;6248650;28;20053;-80
2021/08/12 11:58:31;;;;;;;4.50;2.70;;;;;;;25.28;57.65;101630.75;6250213;28;20064;-79
2021/08/12 12:01:35;;;;;;;3.08;2.00;;;;;;;25.01;62.20;101632.50;6255829;28;20060;-79
2021/08/12 12:04:40;;;;;;;2.70;1.80;;;;;;;25.11;62.99;101634.31;6257666;28;20051;-81
2021/08/12 12:07:43;;;;;;;3.10;2.30;;;;;;;25.55;58.38;101638.69;6269240;28;20111;-80
2021/08/12 12:10:46;;;;;;;3.72;2.47;;;;;;;25.88;56.97;101632.69;6262830;28;20052;-80
2021/08/12 12:13:48;;;;;;;3.53;2.08;;;;;;;26.04;57.24;101638.16;6269719;28;20052;-80
2021/08/12 12:17:20;;;;;;;3.10;2.22;;;;;;;26.19;55.86;101625.75;6271776;28;20056;-80
2021/08/12 12:20:24;;;;;;;6.10;2.50;;;;;;;26.37;57.85;101622.97;6252887;28;20075;-80
2021/08/12 12:23:26;;;;;;;4.07;2.38;;;;;;;26.45;55.90;101624.88;6304514;22;20579;-79
2021/08/12 12:26:28;;;;;;;4.35;2.63;;;;;;;26.50;54.39;101625.22;6290051;28;20040;-83
2021/08/12 12:29:30;;;;;;;3.30;2.50;;;;;;;26.27;54.68;101623.09;6282439;28;20090;-81
2021/08/12 12:32:33;;;;;;;3.13;2.20;;;;;;;26.41;56.10;101610.84;6279295;28;20138;-81
2021/08/12 12:35:37;;;;;;;3.00;2.05;;;;;;;26.78;52.74;101623.94;6274337;28;20049;-81
2021/08/12 12:38:38;;;;;;;3.78;2.40;;;;;;;26.89;53.31;101614.69;6286043;28;20051;-79
2021/08/12 12:41:40;;;;;;;2.65;2.20;;;;;;;26.97;53.10;101613.81;6280467;28;20045;-81
2021/08/12 12:44:58;;;;;;;4.00;2.05;;;;;;;26.72;54.06;101607.59;6284288;28;20045;-81
2021/08/12 12:48:09;;;;;;;2.97;1.87;;;;;;;26.99;55.57;101612.66;6280634;28;20045;-81
2021/08/12 12:51:10;;;;;;;4.07;2.35;;;;;;;27.25;52.15;101609.81;6278995;28;20049;-81
2021/08/12 12:54:11;;;;;;;4.07;2.10;;;;;;;27.33;50.46;101610.81;6270102;28;20056;-80
2021/08/12 12:57:13;;;;;;;3.75;2.28;;;;;;;27.42;49.75;101605.22;6270272;28;20480;-82
2021/08/12 13:00:22;;;;;;;4.40;2.50;;;;;;;27.46;48.46;101601.19;6278958;28;20131;-83
2021/08/12 13:03:37;;;;;;;4.35;2.42;;;;;;;27.49;49.18;101595.44;6291157;28;20045;-81
2021/08/12 13:06:40;;;;;;;3.97;2.22;;;;;;;27.24;50.79;101597.31;6300073;28;20051;-81
2021/08/12 13:09:41;;;;;;;3.63;2.28;;;;;;;27.35;50.06;101603.41;6302632;28;20056;-81
2021/08/12 13:12:57;;;;;;;2.80;1.95;;;;;;;27.59;48.56;101602.50;6301731;28;20407;-82
2021/08/12 13:16:00;;;;;;;5.18;2.70;;;;;;;27.67;47.92;101595.22;6298738;28;20484;-81
2021/08/12 13:19:03;;;;;;;3.95;2.55;;;;;;;27.46;48.73;101592.22;6290688;28;20055;-80
2021/08/12 13:22:19;;;;;;;3.25;2.20;;;;;;;27.37;50.42;101595.97;6287170;28;20049;-80
2021/08/12 13:25:22;;;;;;;3.55;2.25;;;;;;;27.44;49.05;101595.13;6294081;28;20049;-82
2021/08/12 13:28:34;;;;;;;2.17;1.90;;;;;;;27.78;49.22;101597.56;6296422;28;20053;-82
2021/08/12 13:31:39;;;;;;;3.00;2.00;;;;;;;27.66;49.29;101601.66;6301117;28;20059;-78
2021/08/12 13:34:44;;;;;;;2.65;1.80;;;;;;;27.34;50.16;101591.72;6302514;28;20048;-78
2021/08/12 13:37:45;;;;;;;2.90;2.10;;;;;;;26.92;50.47;101586.50;6301667;28;20415;-82
2021/08/12 13:40:47;;;;;;;3.75;2.25;;;;;;;27.13;52.48;101589.59;6300224;28;20055;-81
2021/08/12 13:43:48;;;;;;;3.80;2.25;;;;;;;26.97;50.89;101579.59;6299903;28;20055;-81
2021/08/12 13:46:49;;;;;;;3.28;2.40;;;;;;;27.26;51.14;101583.69;6300610;28;20376;-81
2021/08/12 13:49:52;;;;;;;3.15;2.28;;;;;;;27.81;50.58;101588.28;6300729;28;20048;-82
2021/08/12 13:52:53;;;;;;;3.85;2.15;;;;;;;27.83;47.84;101593.50;6300582;28;20055;-79
2021/08/12 13:55:55;;;;;;;3.67;2.45;;;;;;;28.14;46.75;101590.84;6300330;28;20045;-81
2021/08/12 13:58:56;;;;;;;3.80;2.30;;;;;;;27.84;47.15;101595.19;6300079;28;20049;-79
2021/08/12 14:01:57;;;;;;;3.92;2.67;;;;;;;27.26;51.47;101589.91;6299491;28;20053;-80